sensor_id;sensor_type;location;lat;lon;timestamp;pressure;altitude;pressure_sealevel;temperature;humidity
49723;BME280;43484;43.608;1.458;2022-12-18T00:01:22;100156.53;;;5.74;100.00
49723;BME280;43484;43.608;1.458;2022-12-18T00:03:50;100163.34;;;5.75;100.00
49723;BME280;43484;43.608;1.458;2022-12-18T00:06:17;100162.22;;;5.70;100.00
49723;BME280;43484;43.608;1.458;2022-12-18T00:08:44;100155.50;;;5.70;100.00
49723;BME280;43484;43.608;1.458;2022-12-18T00:11:19;100154.22;;;5.78;100.00
49723;BME280;43484;43.608;1.458;2022-12-18T00:13:46;100160.03;;;5.76;100.00
49723;BME280;43484;43.608;1.458;2022-12-18T00:16:18;100168.19;;;5.70;100.00
49723;BME280;43484;43.608;1.458;2022-12-18T00:18:50;100162.38;;;5.73;100.00
49723;BME280;43484;43.608;1.458;2022-12-18T00:21:18;100172.00;;;5.78;100.00
49723;BME280;43484;43.608;1.458;2022-12-18T00:23:45;100163.69;;;5.81;100.00
49723;BME280;43484;43.608;1.458;2022-12-18T00:26:15;100163.81;;;5.82;100.00
49723;BME280;43484;43.608;1.458;2022-12-18T00:28:42;100168.50;;;5.76;100.00
49723;BME280;43484;43.608;1.458;2022-12-18T00:31:15;100178.13;;;5.82;100.00
49723;BME280;43484;43.608;1.458;2022-12-18T00:33:42;100183.41;;;5.85;100.00
49723;BME280;43484;43.608;1.458;2022-12-18T00:36:12;100191.03;;;5.85;100.00
49723;BME280;43484;43.608;1.458;2022-12-18T00:38:40;100197.28;;;5.75;100.00
49723;BME280;43484;43.608;1.458;2022-12-18T00:41:07;100203.41;;;5.79;100.00
49723;BME280;43484;43.608;1.458;2022-12-18T00:43:35;100197.03;;;5.71;100.00
49723;BME280;43484;43.608;1.458;2022-12-18T00:46:02;100197.41;;;5.62;100.00
49723;BME280;43484;43.608;1.458;2022-12-18T00:48:30;100191.88;;;5.69;100.00
49723;BME280;43484;43.608;1.458;2022-12-18T00:50:57;100195.28;;;5.70;100.00
49723;BME280;43484;43.608;1.458;2022-12-18T00:53:24;100201.47;;;5.75;100.00
49723;BME280;43484;43.608;1.458;2022-12-18T00:55:50;100201.00;;;5.66;100.00
49723;BME280;43484;43.608;1.458;2022-12-18T00:58:17;100211.94;;;5.65;100.00
49723;BME280;43484;43.608;1.458;2022-12-18T01:00:43;100216.47;;;5.85;100.00
49723;BME280;43484;43.608;1.458;2022-12-18T01:03:13;100231.19;;;5.76;100.00
49723;BME280;43484;43.608;1.458;2022-12-18T01:05:41;100241.19;;;5.73;100.00
49723;BME280;43484;43.608;1.458;2022-12-18T01:08:08;100246.97;;;5.70;100.00
49723;BME280;43484;43.608;1.458;2022-12-18T01:10:35;100244.13;;;5.64;100.00
49723;BME280;43484;43.608;1.458;2022-12-18T01:13:02;100255.72;;;5.75;100.00
49723;BME280;43484;43.608;1.458;2022-12-18T01:15:28;100267.56;;;5.75;100.00
49723;BME280;43484;43.608;1.458;2022-12-18T01:17:55;100275.25;;;5.76;100.00
49723;BME280;43484;43.608;1.458;2022-12-18T01:20:21;100272.22;;;5.67;100.00
49723;BME280;43484;43.608;1.458;2022-12-18T01:22:48;100276.09;;;5.61;100.00
49723;BME280;43484;43.608;1.458;2022-12-18T01:25:15;100268.47;;;5.61;100.00
49723;BME280;43484;43.608;1.458;2022-12-18T01:27:41;100266.59;;;5.73;100.00
49723;BME280;43484;43.608;1.458;2022-12-18T01:30:08;100284.13;;;5.68;100.00
49723;BME280;43484;43.608;1.458;2022-12-18T01:32:35;100292.03;;;5.58;100.00
49723;BME280;43484;43.608;1.458;2022-12-18T01:35:02;100295.81;;;5.50;100.00
49723;BME280;43484;43.608;1.458;2022-12-18T01:37:29;100289.88;;;5.35;100.00
49723;BME280;43484;43.608;1.458;2022-12-18T01:39:55;100294.00;;;5.33;100.00
49723;BME280;43484;43.608;1.458;2022-12-18T01:42:22;100292.50;;;5.22;100.00
49723;BME280;43484;43.608;1.458;2022-12-18T01:50:22;100289.81;;;5.19;100.00
49723;BME280;43484;43.608;1.458;2022-12-18T01:52:52;100287.22;;;5.04;100.00
49723;BME280;43484;43.608;1.458;2022-12-18T01:55:22;100275.84;;;4.98;100.00
49723;BME280;43484;43.608;1.458;2022-12-18T01:57:52;100278.94;;;5.07;100.00
49723;BME280;43484;43.608;1.458;2022-12-18T02:00:21;100280.25;;;5.00;100.00
49723;BME280;43484;43.608;1.458;2022-12-18T02:02:48;100274.13;;;5.11;100.00
49723;BME280;43484;43.608;1.458;2022-12-18T02:05:19;100276.44;;;4.94;100.00
49723;BME280;43484;43.608;1.458;2022-12-18T02:13:57;100272.09;;;4.77;100.00
49723;BME280;43484;43.608;1.458;2022-12-18T02:27:29;100266.63;;;4.71;100.00
49723;BME280;43484;43.608;1.458;2022-12-18T02:29:59;100263.91;;;4.68;100.00
49723;BME280;43484;43.608;1.458;2022-12-18T02:32:30;100266.69;;;4.58;100.00
49723;BME280;43484;43.608;1.458;2022-12-18T02:34:59;100260.72;;;4.57;100.00
49723;BME280;43484;43.608;1.458;2022-12-18T02:37:29;100269.38;;;4.46;100.00
49723;BME280;43484;43.608;1.458;2022-12-18T02:39:58;100255.72;;;4.44;100.00
49723;BME280;43484;43.608;1.458;2022-12-18T02:42:26;100253.00;;;4.41;100.00
49723;BME280;43484;43.608;1.458;2022-12-18T02:44:54;100259.81;;;4.42;100.00
49723;BME280;43484;43.608;1.458;2022-12-18T02:47:24;100249.72;;;4.57;100.00
49723;BME280;43484;43.608;1.458;2022-12-18T02:58:36;100246.28;;;4.42;100.00
49723;BME280;43484;43.608;1.458;2022-12-18T03:01:09;100240.81;;;4.36;100.00
49723;BME280;43484;43.608;1.458;2022-12-18T03:03:55;100231.75;;;4.39;100.00
49723;BME280;43484;43.608;1.458;2022-12-18T03:06:28;100226.84;;;4.42;100.00
49723;BME280;43484;43.608;1.458;2022-12-18T03:08:59;100214.25;;;4.44;100.00
49723;BME280;43484;43.608;1.458;2022-12-18T03:11:28;100218.19;;;4.39;100.00
49723;BME280;43484;43.608;1.458;2022-12-18T03:14:18;100223.50;;;4.29;100.00
49723;BME280;43484;43.608;1.458;2022-12-18T03:16:49;100213.97;;;4.25;100.00
49723;BME280;43484;43.608;1.458;2022-12-18T03:19:21;100201.47;;;4.28;100.00
49723;BME280;43484;43.608;1.458;2022-12-18T03:21:51;100197.63;;;4.34;100.00
49723;BME280;43484;43.608;1.458;2022-12-18T03:24:21;100193.34;;;4.33;100.00
49723;BME280;43484;43.608;1.458;2022-12-18T03:26:52;100191.88;;;4.37;100.00
49723;BME280;43484;43.608;1.458;2022-12-18T03:29:23;100189.44;;;4.38;100.00
49723;BME280;43484;43.608;1.458;2022-12-18T03:31:55;100188.31;;;4.48;100.00
49723;BME280;43484;43.608;1.458;2022-12-18T03:34:31;100196.25;;;4.54;100.00
49723;BME280;43484;43.608;1.458;2022-12-18T03:36:58;100198.69;;;4.52;100.00
49723;BME280;43484;43.608;1.458;2022-12-18T03:39:30;100213.16;;;4.53;100.00
49723;BME280;43484;43.608;1.458;2022-12-18T03:44:40;100224.13;;;4.67;100.00
49723;BME280;43484;43.608;1.458;2022-12-18T03:47:27;100236.81;;;4.67;100.00
49723;BME280;43484;43.608;1.458;2022-12-18T03:50:18;100245.81;;;4.62;100.00
49723;BME280;43484;43.608;1.458;2022-12-18T03:52:53;100259.09;;;4.58;100.00
49723;BME280;43484;43.608;1.458;2022-12-18T03:55:24;100256.63;;;4.59;100.00
49723;BME280;43484;43.608;1.458;2022-12-18T03:57:53;100265.22;;;4.61;100.00
49723;BME280;43484;43.608;1.458;2022-12-18T04:00:21;100283.94;;;4.63;100.00
49723;BME280;43484;43.608;1.458;2022-12-18T04:02:51;100292.78;;;4.55;100.00
49723;BME280;43484;43.608;1.458;2022-12-18T04:05:19;100295.81;;;4.50;100.00
49723;BME280;43484;43.608;1.458;2022-12-18T04:07:47;100301.56;;;4.47;100.00
49723;BME280;43484;43.608;1.458;2022-12-18T04:10:16;100292.47;;;4.51;100.00
49723;BME280;43484;43.608;1.458;2022-12-18T04:12:43;100288.88;;;4.47;100.00
49723;BME280;43484;43.608;1.458;2022-12-18T04:15:12;100299.63;;;4.43;100.00
49723;BME280;43484;43.608;1.458;2022-12-18T04:17:46;100300.72;;;4.34;100.00
49723;BME280;43484;43.608;1.458;2022-12-18T04:20:13;100301.25;;;4.28;100.00
49723;BME280;43484;43.608;1.458;2022-12-18T04:22:39;100301.16;;;4.27;100.00
49723;BME280;43484;43.608;1.458;2022-12-18T04:25:06;100318.09;;;4.28;100.00
49723;BME280;43484;43.608;1.458;2022-12-18T04:27:33;100308.22;;;4.05;100.00
49723;BME280;43484;43.608;1.458;2022-12-18T04:30:00;100304.88;;;4.06;100.00
49723;BME280;43484;43.608;1.458;2022-12-18T04:32:27;100302.47;;;3.94;100.00
49723;BME280;43484;43.608;1.458;2022-12-18T04:34:53;100303.25;;;3.93;100.00
49723;BME280;43484;43.608;1.458;2022-12-18T04:37:20;100295.56;;;3.92;100.00
49723;BME280;43484;43.608;1.458;2022-12-18T04:39:46;100301.59;;;3.80;100.00
49723;BME280;43484;43.608;1.458;2022-12-18T04:42:13;100290.50;;;3.92;100.00
49723;BME280;43484;43.608;1.458;2022-12-18T04:44:40;100295.19;;;3.72;100.00
49723;BME280;43484;43.608;1.458;2022-12-18T04:47:06;100286.69;;;3.72;100.00
49723;BME280;43484;43.608;1.458;2022-12-18T04:49:33;100281.44;;;3.69;100.00
49723;BME280;43484;43.608;1.458;2022-12-18T04:52:00;100276.56;;;3.59;100.00
49723;BME280;43484;43.608;1.458;2022-12-18T04:54:27;100269.16;;;3.62;100.00
49723;BME280;43484;43.608;1.458;2022-12-18T04:56:53;100266.25;;;3.56;100.00
49723;BME280;43484;43.608;1.458;2022-12-18T04:59:20;100249.78;;;3.62;100.00
49723;BME280;43484;43.608;1.458;2022-12-18T05:01:47;100254.66;;;3.59;100.00
49723;BME280;43484;43.608;1.458;2022-12-18T05:04:14;100250.66;;;3.63;100.00
49723;BME280;43484;43.608;1.458;2022-12-18T05:06:41;100258.84;;;3.59;100.00
49723;BME280;43484;43.608;1.458;2022-12-18T05:09:08;100251.16;;;3.57;100.00
49723;BME280;43484;43.608;1.458;2022-12-18T05:11:34;100259.13;;;3.50;100.00
49723;BME280;43484;43.608;1.458;2022-12-18T05:14:01;100264.72;;;3.45;100.00
49723;BME280;43484;43.608;1.458;2022-12-18T05:16:28;100272.59;;;3.36;100.00
49723;BME280;43484;43.608;1.458;2022-12-18T05:18:54;100262.84;;;3.42;100.00
49723;BME280;43484;43.608;1.458;2022-12-18T05:21:21;100257.69;;;3.41;100.00
49723;BME280;43484;43.608;1.458;2022-12-18T05:23:47;100258.94;;;3.34;100.00
49723;BME280;43484;43.608;1.458;2022-12-18T05:26:16;100257.88;;;3.31;100.00
49723;BME280;43484;43.608;1.458;2022-12-18T05:28:44;100258.66;;;3.30;100.00
49723;BME280;43484;43.608;1.458;2022-12-18T05:31:11;100254.16;;;3.39;100.00
49723;BME280;43484;43.608;1.458;2022-12-18T05:33:38;100249.91;;;3.38;100.00
49723;BME280;43484;43.608;1.458;2022-12-18T05:36:07;100248.91;;;3.36;100.00
49723;BME280;43484;43.608;1.458;2022-12-18T05:38:36;100252.63;;;3.28;100.00
49723;BME280;43484;43.608;1.458;2022-12-18T05:41:04;100250.66;;;3.37;100.00
49723;BME280;43484;43.608;1.458;2022-12-18T05:43:30;100247.84;;;3.32;100.00
49723;BME280;43484;43.608;1.458;2022-12-18T05:45:57;100252.34;;;3.36;100.00
49723;BME280;43484;43.608;1.458;2022-12-18T05:48:24;100259.72;;;3.33;100.00
49723;BME280;43484;43.608;1.458;2022-12-18T05:50:51;100266.72;;;3.37;100.00
49723;BME280;43484;43.608;1.458;2022-12-18T05:53:19;100262.16;;;3.32;100.00
49723;BME280;43484;43.608;1.458;2022-12-18T05:55:46;100273.53;;;3.38;100.00
49723;BME280;43484;43.608;1.458;2022-12-18T05:58:14;100275.22;;;3.38;100.00
49723;BME280;43484;43.608;1.458;2022-12-18T06:00:43;100281.03;;;3.37;100.00
49723;BME280;43484;43.608;1.458;2022-12-18T06:03:11;100278.31;;;3.21;100.00
49723;BME280;43484;43.608;1.458;2022-12-18T06:05:41;100275.44;;;3.03;100.00
49723;BME280;43484;43.608;1.458;2022-12-18T06:08:08;100271.72;;;2.98;100.00
49723;BME280;43484;43.608;1.458;2022-12-18T06:10:35;100265.56;;;3.06;100.00
49723;BME280;43484;43.608;1.458;2022-12-18T06:13:03;100255.81;;;3.12;100.00
49723;BME280;43484;43.608;1.458;2022-12-18T06:15:30;100249.47;;;3.06;100.00
49723;BME280;43484;43.608;1.458;2022-12-18T06:17:56;100246.47;;;3.11;100.00
49723;BME280;43484;43.608;1.458;2022-12-18T06:20:23;100262.03;;;3.04;100.00
49723;BME280;43484;43.608;1.458;2022-12-18T06:22:55;100267.19;;;3.06;100.00
49723;BME280;43484;43.608;1.458;2022-12-18T06:25:22;100261.06;;;3.02;100.00
49723;BME280;43484;43.608;1.458;2022-12-18T06:27:48;100256.09;;;3.04;100.00
49723;BME280;43484;43.608;1.458;2022-12-18T06:30:15;100252.81;;;3.05;100.00
49723;BME280;43484;43.608;1.458;2022-12-18T06:32:42;100253.09;;;3.09;100.00
49723;BME280;43484;43.608;1.458;2022-12-18T06:35:09;100252.19;;;3.09;100.00
49723;BME280;43484;43.608;1.458;2022-12-18T06:37:35;100245.41;;;3.08;100.00
49723;BME280;43484;43.608;1.458;2022-12-18T06:40:02;100258.25;;;3.11;100.00
49723;BME280;43484;43.608;1.458;2022-12-18T06:42:29;100254.81;;;3.10;100.00
49723;BME280;43484;43.608;1.458;2022-12-18T06:44:55;100252.41;;;3.12;100.00
49723;BME280;43484;43.608;1.458;2022-12-18T06:47:22;100255.06;;;3.26;100.00
49723;BME280;43484;43.608;1.458;2022-12-18T06:49:48;100261.84;;;3.27;100.00
49723;BME280;43484;43.608;1.458;2022-12-18T06:52:15;100269.53;;;3.16;100.00
49723;BME280;43484;43.608;1.458;2022-12-18T06:54:42;100272.88;;;3.15;100.00
49723;BME280;43484;43.608;1.458;2022-12-18T06:57:08;100268.00;;;3.18;100.00
49723;BME280;43484;43.608;1.458;2022-12-18T06:59:35;100271.38;;;3.05;100.00
49723;BME280;43484;43.608;1.458;2022-12-18T07:02:01;100267.56;;;2.99;100.00
49723;BME280;43484;43.608;1.458;2022-12-18T07:04:29;100247.91;;;2.95;100.00
49723;BME280;43484;43.608;1.458;2022-12-18T07:06:56;100250.03;;;2.89;100.00
49723;BME280;43484;43.608;1.458;2022-12-18T07:09:23;100256.34;;;2.82;100.00
49723;BME280;43484;43.608;1.458;2022-12-18T07:11:51;100247.59;;;2.90;100.00
49723;BME280;43484;43.608;1.458;2022-12-18T07:14:18;100252.84;;;2.93;100.00
49723;BME280;43484;43.608;1.458;2022-12-18T07:16:44;100250.09;;;2.77;100.00
49723;BME280;43484;43.608;1.458;2022-12-18T07:19:11;100248.75;;;2.82;100.00
49723;BME280;43484;43.608;1.458;2022-12-18T07:21:37;100238.25;;;2.89;100.00
49723;BME280;43484;43.608;1.458;2022-12-18T07:24:04;100235.91;;;2.79;100.00
49723;BME280;43484;43.608;1.458;2022-12-18T07:26:31;100222.44;;;2.67;100.00
49723;BME280;43484;43.608;1.458;2022-12-18T07:28:58;100213.94;;;2.91;100.00
49723;BME280;43484;43.608;1.458;2022-12-18T07:31:25;100213.44;;;2.97;100.00
49723;BME280;43484;43.608;1.458;2022-12-18T07:33:52;100207.72;;;2.99;100.00
49723;BME280;43484;43.608;1.458;2022-12-18T07:36:23;100220.84;;;3.07;100.00
49723;BME280;43484;43.608;1.458;2022-12-18T07:38:50;100228.66;;;3.10;100.00
49723;BME280;43484;43.608;1.458;2022-12-18T07:41:19;100235.56;;;3.12;100.00
49723;BME280;43484;43.608;1.458;2022-12-18T07:43:46;100235.75;;;3.15;100.00
49723;BME280;43484;43.608;1.458;2022-12-18T07:46:14;100240.03;;;3.03;100.00
49723;BME280;43484;43.608;1.458;2022-12-18T07:48:42;100234.38;;;2.94;100.00
49723;BME280;43484;43.608;1.458;2022-12-18T07:51:14;100225.63;;;3.02;100.00
49723;BME280;43484;43.608;1.458;2022-12-18T07:53:42;100220.09;;;3.08;100.00
49723;BME280;43484;43.608;1.458;2022-12-18T07:56:11;100229.44;;;3.09;100.00
49723;BME280;43484;43.608;1.458;2022-12-18T07:58:56;100228.34;;;3.18;100.00
49723;BME280;43484;43.608;1.458;2022-12-18T08:01:23;100224.97;;;3.31;100.00
49723;BME280;43484;43.608;1.458;2022-12-18T08:03:50;100228.84;;;3.39;100.00
49723;BME280;43484;43.608;1.458;2022-12-18T08:06:18;100244.44;;;3.45;100.00
49723;BME280;43484;43.608;1.458;2022-12-18T08:08:47;100244.25;;;3.55;100.00
49723;BME280;43484;43.608;1.458;2022-12-18T08:11:15;100245.59;;;3.63;100.00
49723;BME280;43484;43.608;1.458;2022-12-18T08:13:41;100243.16;;;3.64;100.00
49723;BME280;43484;43.608;1.458;2022-12-18T08:16:09;100241.00;;;3.70;100.00
49723;BME280;43484;43.608;1.458;2022-12-18T08:18:36;100245.88;;;3.67;100.00
49723;BME280;43484;43.608;1.458;2022-12-18T08:21:14;100241.97;;;3.72;100.00
49723;BME280;43484;43.608;1.458;2022-12-18T08:23:41;100229.81;;;3.80;100.00
49723;BME280;43484;43.608;1.458;2022-12-18T08:26:12;100232.59;;;3.84;100.00
49723;BME280;43484;43.608;1.458;2022-12-18T08:28:40;100229.78;;;3.93;100.00
49723;BME280;43484;43.608;1.458;2022-12-18T08:31:07;100238.44;;;3.97;100.00
49723;BME280;43484;43.608;1.458;2022-12-18T08:33:35;100240.22;;;4.12;100.00
49723;BME280;43484;43.608;1.458;2022-12-18T08:36:03;100241.94;;;4.26;100.00
49723;BME280;43484;43.608;1.458;2022-12-18T08:38:31;100232.69;;;4.27;100.00
49723;BME280;43484;43.608;1.458;2022-12-18T08:41:06;100218.19;;;4.39;100.00
49723;BME280;43484;43.608;1.458;2022-12-18T08:43:33;100210.53;;;4.66;100.00
49723;BME280;43484;43.608;1.458;2022-12-18T08:46:19;100213.88;;;4.94;100.00
49723;BME280;43484;43.608;1.458;2022-12-18T08:48:46;100199.31;;;5.21;100.00
49723;BME280;43484;43.608;1.458;2022-12-18T08:51:15;100208.31;;;5.45;100.00
49723;BME280;43484;43.608;1.458;2022-12-18T08:53:43;100198.09;;;5.74;100.00
49723;BME280;43484;43.608;1.458;2022-12-18T08:56:11;100201.47;;;5.89;100.00
49723;BME280;43484;43.608;1.458;2022-12-18T08:58:38;100204.25;;;6.10;100.00
49723;BME280;43484;43.608;1.458;2022-12-18T09:01:11;100212.03;;;6.13;100.00
49723;BME280;43484;43.608;1.458;2022-12-18T09:03:39;100220.06;;;6.36;100.00
49723;BME280;43484;43.608;1.458;2022-12-18T09:06:07;100234.41;;;6.51;100.00
49723;BME280;43484;43.608;1.458;2022-12-18T09:08:33;100246.16;;;6.65;100.00
49723;BME280;43484;43.608;1.458;2022-12-18T09:11:00;100256.78;;;6.74;100.00
49723;BME280;43484;43.608;1.458;2022-12-18T09:13:27;100264.59;;;6.77;100.00
49723;BME280;43484;43.608;1.458;2022-12-18T09:15:54;100267.19;;;6.94;100.00
49723;BME280;43484;43.608;1.458;2022-12-18T09:18:23;100275.13;;;7.00;100.00
49723;BME280;43484;43.608;1.458;2022-12-18T09:20:50;100287.31;;;7.06;100.00
49723;BME280;43484;43.608;1.458;2022-12-18T09:23:19;100291.13;;;7.14;100.00
49723;BME280;43484;43.608;1.458;2022-12-18T09:25:46;100315.38;;;7.23;100.00
49723;BME280;43484;43.608;1.458;2022-12-18T09:28:14;100319.34;;;7.34;100.00
49723;BME280;43484;43.608;1.458;2022-12-18T09:30:46;100326.63;;;7.44;100.00
49723;BME280;43484;43.608;1.458;2022-12-18T09:33:14;100327.94;;;7.54;100.00
49723;BME280;43484;43.608;1.458;2022-12-18T09:35:42;100335.09;;;7.61;100.00
49723;BME280;43484;43.608;1.458;2022-12-18T09:38:15;100339.63;;;7.67;100.00
49723;BME280;43484;43.608;1.458;2022-12-18T09:40:45;100343.44;;;7.75;100.00
49723;BME280;43484;43.608;1.458;2022-12-18T09:43:18;100346.56;;;7.87;100.00
49723;BME280;43484;43.608;1.458;2022-12-18T09:45:51;100346.91;;;7.94;100.00
49723;BME280;43484;43.608;1.458;2022-12-18T09:48:26;100348.25;;;8.04;100.00
49723;BME280;43484;43.608;1.458;2022-12-18T09:50:59;100349.75;;;8.18;100.00
49723;BME280;43484;43.608;1.458;2022-12-18T09:53:30;100363.47;;;8.20;100.00
49723;BME280;43484;43.608;1.458;2022-12-18T09:56:00;100375.97;;;8.31;100.00
49723;BME280;43484;43.608;1.458;2022-12-18T09:58:33;100389.09;;;8.39;100.00
49723;BME280;43484;43.608;1.458;2022-12-18T10:01:02;100406.41;;;8.46;100.00
49723;BME280;43484;43.608;1.458;2022-12-18T10:03:34;100412.34;;;8.45;100.00
49723;BME280;43484;43.608;1.458;2022-12-18T10:08:51;100430.84;;;8.58;100.00
49723;BME280;43484;43.608;1.458;2022-12-18T10:11:35;100448.63;;;8.74;100.00
49723;BME280;43484;43.608;1.458;2022-12-18T10:19:31;100463.88;;;8.73;100.00
49723;BME280;43484;43.608;1.458;2022-12-18T10:22:14;100479.72;;;8.83;100.00
49723;BME280;43484;43.608;1.458;2022-12-18T10:27:41;100500.66;;;8.94;100.00
49723;BME280;43484;43.608;1.458;2022-12-18T10:30:17;100499.56;;;8.89;100.00
49723;BME280;43484;43.608;1.458;2022-12-18T10:32:44;100506.34;;;8.88;100.00
49723;BME280;43484;43.608;1.458;2022-12-18T10:35:25;100514.66;;;9.02;100.00
49723;BME280;43484;43.608;1.458;2022-12-18T10:38:20;100530.13;;;9.05;100.00
49723;BME280;43484;43.608;1.458;2022-12-18T10:41:00;100535.03;;;9.01;100.00
49723;BME280;43484;43.608;1.458;2022-12-18T10:46:16;100529.63;;;9.12;100.00
49723;BME280;43484;43.608;1.458;2022-12-18T10:48:54;100542.47;;;9.14;100.00
49723;BME280;43484;43.608;1.458;2022-12-18T10:51:42;100532.81;;;9.08;100.00
49723;BME280;43484;43.608;1.458;2022-12-18T10:54:18;100539.69;;;9.09;100.00
49723;BME280;43484;43.608;1.458;2022-12-18T10:56:46;100559.91;;;9.22;100.00
49723;BME280;43484;43.608;1.458;2022-12-18T10:59:15;100556.59;;;9.25;100.00
49723;BME280;43484;43.608;1.458;2022-12-18T11:01:49;100542.78;;;9.21;100.00
49723;BME280;43484;43.608;1.458;2022-12-18T11:04:19;100541.25;;;9.25;100.00
49723;BME280;43484;43.608;1.458;2022-12-18T11:06:59;100536.28;;;9.28;100.00
49723;BME280;43484;43.608;1.458;2022-12-18T11:09:32;100524.81;;;9.37;100.00
49723;BME280;43484;43.608;1.458;2022-12-18T11:12:04;100540.00;;;9.34;100.00
49723;BME280;43484;43.608;1.458;2022-12-18T11:14:41;100538.31;;;9.35;100.00
49723;BME280;43484;43.608;1.458;2022-12-18T11:17:20;100536.38;;;9.48;100.00
49723;BME280;43484;43.608;1.458;2022-12-18T11:19:57;100538.03;;;9.48;100.00
49723;BME280;43484;43.608;1.458;2022-12-18T11:22:29;100531.56;;;9.54;100.00
49723;BME280;43484;43.608;1.458;2022-12-18T11:27:55;100524.34;;;9.46;100.00
49723;BME280;43484;43.608;1.458;2022-12-18T11:30:24;100509.31;;;9.53;100.00
49723;BME280;43484;43.608;1.458;2022-12-18T11:32:54;100495.88;;;9.57;100.00
49723;BME280;43484;43.608;1.458;2022-12-18T11:35:38;100496.13;;;9.63;100.00
49723;BME280;43484;43.608;1.458;2022-12-18T11:38:31;100471.91;;;9.55;100.00
49723;BME280;43484;43.608;1.458;2022-12-18T11:46:18;100469.66;;;9.82;100.00
49723;BME280;43484;43.608;1.458;2022-12-18T11:49:07;100483.25;;;9.81;100.00
49723;BME280;43484;43.608;1.458;2022-12-18T11:51:43;100471.59;;;9.87;100.00
49723;BME280;43484;43.608;1.458;2022-12-18T11:54:14;100480.75;;;9.82;100.00
49723;BME280;43484;43.608;1.458;2022-12-18T11:56:48;100491.19;;;9.87;100.00
49723;BME280;43484;43.608;1.458;2022-12-18T12:01:55;100486.72;;;10.02;100.00
49723;BME280;43484;43.608;1.458;2022-12-18T12:05:02;100500.69;;;9.89;100.00
49723;BME280;43484;43.608;1.458;2022-12-18T12:07:42;100498.63;;;10.01;100.00
49723;BME280;43484;43.608;1.458;2022-12-18T12:10:35;100491.53;;;9.94;100.00
49723;BME280;43484;43.608;1.458;2022-12-18T12:21:26;100471.72;;;10.09;100.00
49723;BME280;43484;43.608;1.458;2022-12-18T12:40:12;100451.59;;;10.39;100.00
49723;BME280;43484;43.608;1.458;2022-12-18T12:43:10;100457.78;;;10.44;100.00
49723;BME280;43484;43.608;1.458;2022-12-18T12:46:02;100442.34;;;10.43;100.00
49723;BME280;43484;43.608;1.458;2022-12-18T12:48:37;100452.66;;;10.44;100.00
49723;BME280;43484;43.608;1.458;2022-12-18T12:51:16;100448.47;;;10.46;100.00
49723;BME280;43484;43.608;1.458;2022-12-18T12:53:44;100444.84;;;10.41;100.00
49723;BME280;43484;43.608;1.458;2022-12-18T12:56:14;100441.56;;;10.45;100.00
49723;BME280;43484;43.608;1.458;2022-12-18T12:59:10;100426.34;;;10.48;100.00
49723;BME280;43484;43.608;1.458;2022-12-18T13:01:48;100435.88;;;10.52;100.00
49723;BME280;43484;43.608;1.458;2022-12-18T13:04:44;100441.13;;;10.55;100.00
49723;BME280;43484;43.608;1.458;2022-12-18T13:07:56;100451.50;;;10.58;100.00
49723;BME280;43484;43.608;1.458;2022-12-18T13:10:39;100451.84;;;10.67;100.00
49723;BME280;43484;43.608;1.458;2022-12-18T13:13:09;100462.47;;;10.76;100.00
49723;BME280;43484;43.608;1.458;2022-12-18T13:15:39;100465.03;;;10.76;100.00
49723;BME280;43484;43.608;1.458;2022-12-18T13:23:32;100446.19;;;10.76;100.00
49723;BME280;43484;43.608;1.458;2022-12-18T13:26:00;100444.75;;;10.82;100.00
49723;BME280;43484;43.608;1.458;2022-12-18T13:28:55;100445.25;;;10.74;100.00
49723;BME280;43484;43.608;1.458;2022-12-18T13:34:29;100459.84;;;10.75;100.00
49723;BME280;43484;43.608;1.458;2022-12-18T13:37:39;100430.81;;;10.76;100.00
49723;BME280;43484;43.608;1.458;2022-12-18T13:46:04;100464.16;;;10.76;100.00
49723;BME280;43484;43.608;1.458;2022-12-18T13:48:35;100461.22;;;10.67;100.00
49723;BME280;43484;43.608;1.458;2022-12-18T13:51:08;100469.25;;;10.76;100.00
49723;BME280;43484;43.608;1.458;2022-12-18T13:53:44;100465.03;;;10.76;100.00
49723;BME280;43484;43.608;1.458;2022-12-18T13:56:23;100453.16;;;10.78;100.00
49723;BME280;43484;43.608;1.458;2022-12-18T13:59:23;100452.38;;;10.81;100.00
49723;BME280;43484;43.608;1.458;2022-12-18T14:01:56;100450.91;;;10.87;100.00
49723;BME280;43484;43.608;1.458;2022-12-18T14:06:58;100444.22;;;10.91;100.00
49723;BME280;43484;43.608;1.458;2022-12-18T14:09:36;100453.00;;;10.97;100.00
49723;BME280;43484;43.608;1.458;2022-12-18T14:12:06;100443.22;;;10.87;100.00
49723;BME280;43484;43.608;1.458;2022-12-18T14:14:52;100457.34;;;10.98;100.00
49723;BME280;43484;43.608;1.458;2022-12-18T14:17:20;100453.16;;;11.02;100.00
49723;BME280;43484;43.608;1.458;2022-12-18T14:19:50;100454.00;;;11.01;100.00
49723;BME280;43484;43.608;1.458;2022-12-18T14:22:23;100452.38;;;11.03;100.00
49723;BME280;43484;43.608;1.458;2022-12-18T14:25:25;100442.28;;;11.07;100.00
49723;BME280;43484;43.608;1.458;2022-12-18T14:28:03;100436.41;;;11.10;100.00
49723;BME280;43484;43.608;1.458;2022-12-18T14:33:06;100432.06;;;11.09;100.00
49723;BME280;43484;43.608;1.458;2022-12-18T14:35:58;100425.25;;;11.09;100.00
49723;BME280;43484;43.608;1.458;2022-12-18T14:41:13;100433.06;;;11.12;100.00
49723;BME280;43484;43.608;1.458;2022-12-18T14:43:41;100438.19;;;11.12;100.00
49723;BME280;43484;43.608;1.458;2022-12-18T14:46:35;100441.09;;;11.21;100.00
49723;BME280;43484;43.608;1.458;2022-12-18T14:49:04;100443.16;;;11.08;100.00
49723;BME280;43484;43.608;1.458;2022-12-18T14:51:47;100448.88;;;11.01;100.00
49723;BME280;43484;43.608;1.458;2022-12-18T14:54:17;100445.47;;;11.02;100.00